sensor_id;sensor_type;location;lat;lon;timestamp;pressure;altitude;pressure_sealevel;temperature;humidity
6020;BME280;3038;51.122;6.840;2023-10-08T00:02:27;101931.41;;;19.19;71.31
6020;BME280;3038;51.122;6.840;2023-10-08T00:04:53;101923.94;;;19.15;71.19
6020;BME280;3038;51.122;6.840;2023-10-08T00:07:20;101932.19;;;19.13;71.29
6020;BME280;3038;51.122;6.840;2023-10-08T00:09:50;101932.09;;;19.07;71.54
6020;BME280;3038;51.122;6.840;2023-10-08T00:12:21;101919.66;;;19.06;71.34
6020;BME280;3038;51.122;6.840;2023-10-08T00:14:48;101913.34;;;18.98;71.64
6020;BME280;3038;51.122;6.840;2023-10-08T00:17:16;101926.59;;;19.00;71.69
6020;BME280;3038;51.122;6.840;2023-10-08T00:19:42;101931.53;;;18.96;71.60
6020;BME280;3038;51.122;6.840;2023-10-08T00:22:11;101932.38;;;18.97;71.89
6020;BME280;3038;51.122;6.840;2023-10-08T00:24:39;101939.63;;;18.96;71.47
6020;BME280;3038;51.122;6.840;2023-10-08T00:27:07;101937.28;;;18.93;71.56
6020;BME280;3038;51.122;6.840;2023-10-08T00:29:32;101947.22;;;18.93;71.94
6020;BME280;3038;51.122;6.840;2023-10-08T00:31:58;101946.75;;;18.89;71.44
6020;BME280;3038;51.122;6.840;2023-10-08T00:34:23;101947.56;;;18.90;71.76
6020;BME280;3038;51.122;6.840;2023-10-08T00:36:53;101948.50;;;18.82;71.92
6020;BME280;3038;51.122;6.840;2023-10-08T00:39:20;101949.97;;;18.85;72.14
6020;BME280;3038;51.122;6.840;2023-10-08T00:41:50;101937.75;;;18.82;72.15
6020;BME280;3038;51.122;6.840;2023-10-08T00:44:16;101925.22;;;18.74;72.20
6020;BME280;3038;51.122;6.840;2023-10-08T00:46:49;101934.84;;;18.69;72.53
6020;BME280;3038;51.122;6.840;2023-10-08T00:49:20;101929.78;;;18.66;72.18
6020;BME280;3038;51.122;6.840;2023-10-08T00:51:47;101932.03;;;18.62;72.32
6020;BME280;3038;51.122;6.840;2023-10-08T00:54:18;101931.00;;;18.63;72.60
6020;BME280;3038;51.122;6.840;2023-10-08T00:56:46;101936.75;;;18.60;72.59
6020;BME280;3038;51.122;6.840;2023-10-08T00:59:15;101947.06;;;18.57;72.63
6020;BME280;3038;51.122;6.840;2023-10-08T01:01:44;101945.75;;;18.53;72.72
6020;BME280;3038;51.122;6.840;2023-10-08T01:04:19;101941.75;;;18.48;72.61
6020;BME280;3038;51.122;6.840;2023-10-08T01:06:53;101939.69;;;18.50;72.73
6020;BME280;3038;51.122;6.840;2023-10-08T01:09:21;101932.38;;;18.44;72.44
6020;BME280;3038;51.122;6.840;2023-10-08T01:12:09;101935.13;;;18.36;73.03
6020;BME280;3038;51.122;6.840;2023-10-08T01:14:38;101927.16;;;18.28;73.40
6020;BME280;3038;51.122;6.840;2023-10-08T01:17:07;101920.16;;;18.19;73.56
6020;BME280;3038;51.122;6.840;2023-10-08T01:19:32;101918.72;;;18.08;74.00
6020;BME280;3038;51.122;6.840;2023-10-08T01:22:04;101919.28;;;18.04;74.26
6020;BME280;3038;51.122;6.840;2023-10-08T01:24:32;101929.69;;;17.98;74.22
6020;BME280;3038;51.122;6.840;2023-10-08T01:27:00;101927.38;;;17.95;74.31
6020;BME280;3038;51.122;6.840;2023-10-08T01:29:26;101909.94;;;17.91;74.43
6020;BME280;3038;51.122;6.840;2023-10-08T01:31:55;101916.50;;;17.89;73.87
6020;BME280;3038;51.122;6.840;2023-10-08T01:34:22;101927.81;;;17.84;74.69
6020;BME280;3038;51.122;6.840;2023-10-08T01:36:55;101947.97;;;17.80;74.47
6020;BME280;3038;51.122;6.840;2023-10-08T01:39:21;101942.47;;;17.73;74.70
6020;BME280;3038;51.122;6.840;2023-10-08T01:41:46;101941.78;;;17.71;74.61
6020;BME280;3038;51.122;6.840;2023-10-08T01:44:12;101941.09;;;17.69;74.57
6020;BME280;3038;51.122;6.840;2023-10-08T01:46:40;101950.38;;;17.67;74.51
6020;BME280;3038;51.122;6.840;2023-10-08T01:49:06;101942.66;;;17.64;74.53
6020;BME280;3038;51.122;6.840;2023-10-08T01:51:40;101948.03;;;17.64;74.67
6020;BME280;3038;51.122;6.840;2023-10-08T01:54:14;101951.72;;;17.63;74.57
6020;BME280;3038;51.122;6.840;2023-10-08T01:56:45;101946.69;;;17.60;74.58
6020;BME280;3038;51.122;6.840;2023-10-08T01:59:11;101935.66;;;17.55;74.92
6020;BME280;3038;51.122;6.840;2023-10-08T02:01:42;101946.06;;;17.50;74.93
6020;BME280;3038;51.122;6.840;2023-10-08T02:04:09;101923.94;;;17.47;75.13
6020;BME280;3038;51.122;6.840;2023-10-08T02:06:37;101931.19;;;17.39;75.33
6020;BME280;3038;51.122;6.840;2023-10-08T02:09:06;101941.44;;;17.35;75.67
6020;BME280;3038;51.122;6.840;2023-10-08T02:11:43;101946.34;;;17.32;76.15
6020;BME280;3038;51.122;6.840;2023-10-08T02:14:09;101931.72;;;17.34;75.51
6020;BME280;3038;51.122;6.840;2023-10-08T02:16:35;101944.31;;;17.34;75.71
6020;BME280;3038;51.122;6.840;2023-10-08T02:19:02;101945.34;;;17.33;75.53
6020;BME280;3038;51.122;6.840;2023-10-08T02:21:29;101945.19;;;17.26;75.96
6020;BME280;3038;51.122;6.840;2023-10-08T02:23:54;101947.88;;;17.26;76.04
6020;BME280;3038;51.122;6.840;2023-10-08T02:26:22;101940.97;;;17.32;75.67
6020;BME280;3038;51.122;6.840;2023-10-08T02:28:48;101932.25;;;17.30;75.88
6020;BME280;3038;51.122;6.840;2023-10-08T02:31:16;101934.06;;;17.37;75.61
6020;BME280;3038;51.122;6.840;2023-10-08T02:33:43;101948.16;;;17.39;75.57
6020;BME280;3038;51.122;6.840;2023-10-08T02:36:09;101942.09;;;17.45;75.56
6020;BME280;3038;51.122;6.840;2023-10-08T02:38:35;101952.47;;;17.48;75.35
6020;BME280;3038;51.122;6.840;2023-10-08T02:41:04;101951.75;;;17.55;75.02
6020;BME280;3038;51.122;6.840;2023-10-08T02:43:32;101932.31;;;17.53;74.85
6020;BME280;3038;51.122;6.840;2023-10-08T02:46:00;101924.97;;;17.46;74.80
6020;BME280;3038;51.122;6.840;2023-10-08T02:48:25;101943.75;;;17.46;74.80
6020;BME280;3038;51.122;6.840;2023-10-08T02:50:52;101924.78;;;17.48;74.88
6020;BME280;3038;51.122;6.840;2023-10-08T02:53:19;101919.44;;;17.40;75.16
6020;BME280;3038;51.122;6.840;2023-10-08T02:55:48;101946.81;;;17.35;75.55
6020;BME280;3038;51.122;6.840;2023-10-08T02:58:15;101943.47;;;17.33;75.72
6020;BME280;3038;51.122;6.840;2023-10-08T03:00:45;101947.00;;;17.34;75.60
6020;BME280;3038;51.122;6.840;2023-10-08T03:03:12;101950.69;;;17.33;75.19
6020;BME280;3038;51.122;6.840;2023-10-08T03:05:45;101952.56;;;17.32;75.08
6020;BME280;3038;51.122;6.840;2023-10-08T03:08:12;101953.25;;;17.26;75.15
6020;BME280;3038;51.122;6.840;2023-10-08T03:10:45;101961.16;;;17.19;75.11
6020;BME280;3038;51.122;6.840;2023-10-08T03:13:11;101967.53;;;17.18;74.93
6020;BME280;3038;51.122;6.840;2023-10-08T03:15:40;101975.06;;;17.23;74.71
6020;BME280;3038;51.122;6.840;2023-10-08T03:18:06;101966.31;;;17.21;74.71
6020;BME280;3038;51.122;6.840;2023-10-08T03:20:38;101969.72;;;17.15;74.70
6020;BME280;3038;51.122;6.840;2023-10-08T03:23:08;101971.44;;;17.08;74.61
6020;BME280;3038;51.122;6.840;2023-10-08T03:25:57;101964.03;;;17.02;74.79
6020;BME280;3038;51.122;6.840;2023-10-08T03:28:43;101958.34;;;16.96;74.75
6020;BME280;3038;51.122;6.840;2023-10-08T03:31:08;101964.09;;;16.93;74.75
6020;BME280;3038;51.122;6.840;2023-10-08T03:33:43;101971.44;;;16.91;74.80
6020;BME280;3038;51.122;6.840;2023-10-08T03:36:14;101957.38;;;16.89;74.72
6020;BME280;3038;51.122;6.840;2023-10-08T03:38:46;101950.34;;;16.88;74.55
6020;BME280;3038;51.122;6.840;2023-10-08T03:41:26;101957.06;;;16.84;75.17
6020;BME280;3038;51.122;6.840;2023-10-08T03:43:56;101974.50;;;16.80;75.00
6020;BME280;3038;51.122;6.840;2023-10-08T03:46:31;101978.34;;;16.78;75.12
6020;BME280;3038;51.122;6.840;2023-10-08T03:48:58;101990.59;;;16.80;75.02
6020;BME280;3038;51.122;6.840;2023-10-08T03:51:30;101982.03;;;16.77;74.74
6020;BME280;3038;51.122;6.840;2023-10-08T03:56:09;101971.81;;;16.72;74.20
6020;BME280;3038;51.122;6.840;2023-10-08T03:58:37;101954.38;;;16.76;74.49
6020;BME280;3038;51.122;6.840;2023-10-08T04:01:11;101948.81;;;16.78;74.46
6020;BME280;3038;51.122;6.840;2023-10-08T04:03:43;101964.78;;;16.79;74.37
6020;BME280;3038;51.122;6.840;2023-10-08T04:06:29;101957.41;;;16.73;74.42
6020;BME280;3038;51.122;6.840;2023-10-08T04:09:00;101975.47;;;16.71;74.81
6020;BME280;3038;51.122;6.840;2023-10-08T04:11:36;101962.41;;;16.76;74.30
6020;BME280;3038;51.122;6.840;2023-10-08T04:14:11;101965.63;;;16.72;74.29
6020;BME280;3038;51.122;6.840;2023-10-08T04:16:39;101958.06;;;16.75;74.08
6020;BME280;3038;51.122;6.840;2023-10-08T04:19:06;101974.16;;;16.75;74.14
6020;BME280;3038;51.122;6.840;2023-10-08T04:21:32;101960.25;;;16.72;74.10
6020;BME280;3038;51.122;6.840;2023-10-08T04:23:59;101958.41;;;16.64;74.14
6020;BME280;3038;51.122;6.840;2023-10-08T04:26:35;101960.06;;;16.57;74.58
6020;BME280;3038;51.122;6.840;2023-10-08T04:29:03;101963.75;;;16.56;75.08
6020;BME280;3038;51.122;6.840;2023-10-08T04:31:32;101960.06;;;16.49;75.38
6020;BME280;3038;51.122;6.840;2023-10-08T04:34:07;101952.19;;;16.47;75.75
6020;BME280;3038;51.122;6.840;2023-10-08T04:36:44;101974.47;;;16.48;75.81
6020;BME280;3038;51.122;6.840;2023-10-08T04:39:18;101985.19;;;16.48;75.28
6020;BME280;3038;51.122;6.840;2023-10-08T04:41:48;101991.72;;;16.53;75.09
6020;BME280;3038;51.122;6.840;2023-10-08T04:44:19;102002.81;;;16.50;74.87
6020;BME280;3038;51.122;6.840;2023-10-08T04:46:47;102007.34;;;16.50;74.76
6020;BME280;3038;51.122;6.840;2023-10-08T04:49:16;102005.63;;;16.49;74.83
6020;BME280;3038;51.122;6.840;2023-10-08T04:51:59;101998.59;;;16.48;74.91
6020;BME280;3038;51.122;6.840;2023-10-08T04:54:28;101995.59;;;16.51;74.78
6020;BME280;3038;51.122;6.840;2023-10-08T04:57:00;101996.25;;;16.53;74.66
6020;BME280;3038;51.122;6.840;2023-10-08T04:59:28;101994.25;;;16.55;74.15
6020;BME280;3038;51.122;6.840;2023-10-08T05:02:01;101996.59;;;16.58;74.44
6020;BME280;3038;51.122;6.840;2023-10-08T05:04:39;102001.94;;;16.58;74.73
6020;BME280;3038;51.122;6.840;2023-10-08T05:07:25;101999.13;;;16.59;74.36
6020;BME280;3038;51.122;6.840;2023-10-08T05:10:32;101984.38;;;16.63;74.26
6020;BME280;3038;51.122;6.840;2023-10-08T05:13:18;101975.13;;;16.58;74.00
6020;BME280;3038;51.122;6.840;2023-10-08T05:15:55;101979.50;;;16.51;74.54
6020;BME280;3038;51.122;6.840;2023-10-08T05:18:59;101991.41;;;16.40;74.76
6020;BME280;3038;51.122;6.840;2023-10-08T05:21:50;102011.50;;;16.36;75.59
6020;BME280;3038;51.122;6.840;2023-10-08T05:24:31;102016.03;;;16.35;75.87
6020;BME280;3038;51.122;6.840;2023-10-08T05:27:04;102016.88;;;16.36;75.29
6020;BME280;3038;51.122;6.840;2023-10-08T05:29:48;102017.38;;;16.39;74.97
6020;BME280;3038;51.122;6.840;2023-10-08T05:32:32;102036.47;;;16.36;75.20
6020;BME280;3038;51.122;6.840;2023-10-08T05:35:13;102050.22;;;16.41;75.00
6020;BME280;3038;51.122;6.840;2023-10-08T05:37:58;102045.50;;;16.43;75.40
6020;BME280;3038;51.122;6.840;2023-10-08T05:40:39;102046.00;;;16.39;77.32
6020;BME280;3038;51.122;6.840;2023-10-08T05:43:34;102058.22;;;16.33;78.60
6020;BME280;3038;51.122;6.840;2023-10-08T05:46:14;102064.25;;;16.27;77.87
6020;BME280;3038;51.122;6.840;2023-10-08T05:48:52;102057.22;;;16.26;76.97
6020;BME280;3038;51.122;6.840;2023-10-08T05:51:29;102077.00;;;16.25;78.25
6020;BME280;3038;51.122;6.840;2023-10-08T05:54:14;102070.59;;;16.18;79.06
6020;BME280;3038;51.122;6.840;2023-10-08T05:56:56;102069.94;;;16.24;78.22
6020;BME280;3038;51.122;6.840;2023-10-08T05:59:34;102071.44;;;16.18;79.03
6020;BME280;3038;51.122;6.840;2023-10-08T06:05:06;102065.63;;;16.31;78.37
6020;BME280;3038;51.122;6.840;2023-10-08T06:07:53;102063.94;;;16.38;78.12
6020;BME280;3038;51.122;6.840;2023-10-08T06:10:29;102049.53;;;16.31;76.54
6020;BME280;3038;51.122;6.840;2023-10-08T06:13:07;102020.38;;;16.20;76.83
6020;BME280;3038;51.122;6.840;2023-10-08T06:15:50;102020.19;;;16.22;76.92
6020;BME280;3038;51.122;6.840;2023-10-08T06:18:20;102025.38;;;16.23;76.57
6020;BME280;3038;51.122;6.840;2023-10-08T06:20:46;102026.41;;;16.30;76.50
6020;BME280;3038;51.122;6.840;2023-10-08T06:23:12;102023.88;;;16.29;76.75
6020;BME280;3038;51.122;6.840;2023-10-08T06:25:41;102036.78;;;16.33;76.78
6020;BME280;3038;51.122;6.840;2023-10-08T06:28:17;102029.91;;;16.39;76.64
6020;BME280;3038;51.122;6.840;2023-10-08T06:30:50;102046.88;;;16.48;76.75
6020;BME280;3038;51.122;6.840;2023-10-08T06:33:24;102065.31;;;16.51;77.27
6020;BME280;3038;51.122;6.840;2023-10-08T06:36:01;102072.16;;;16.53;77.41
6020;BME280;3038;51.122;6.840;2023-10-08T06:38:33;102054.59;;;16.59;77.06
6020;BME280;3038;51.122;6.840;2023-10-08T06:41:04;102058.59;;;16.63;76.35
6020;BME280;3038;51.122;6.840;2023-10-08T06:43:41;102081.06;;;16.62;76.32
6020;BME280;3038;51.122;6.840;2023-10-08T06:46:30;102082.75;;;16.71;76.22
6020;BME280;3038;51.122;6.840;2023-10-08T06:48:59;102070.88;;;16.82;76.39
6020;BME280;3038;51.122;6.840;2023-10-08T06:51:25;102066.50;;;16.73;75.68
6020;BME280;3038;51.122;6.840;2023-10-08T06:53:51;102064.84;;;16.72;75.87
6020;BME280;3038;51.122;6.840;2023-10-08T06:56:17;102059.31;;;16.81;75.56
6020;BME280;3038;51.122;6.840;2023-10-08T06:58:45;102057.28;;;16.91;75.26
6020;BME280;3038;51.122;6.840;2023-10-08T07:01:14;102064.00;;;16.95;75.24
6020;BME280;3038;51.122;6.840;2023-10-08T07:03:47;102067.53;;;17.04;75.04
6020;BME280;3038;51.122;6.840;2023-10-08T07:06:14;102068.03;;;17.08;74.57
6020;BME280;3038;51.122;6.840;2023-10-08T07:08:51;102066.00;;;17.18;74.42
6020;BME280;3038;51.122;6.840;2023-10-08T07:11:21;102063.31;;;17.10;74.20
6020;BME280;3038;51.122;6.840;2023-10-08T07:13:47;102065.00;;;17.11;74.23
6020;BME280;3038;51.122;6.840;2023-10-08T07:16:12;102058.78;;;17.18;74.02
6020;BME280;3038;51.122;6.840;2023-10-08T07:18:42;102061.97;;;17.14;74.33
6020;BME280;3038;51.122;6.840;2023-10-08T07:21:15;102065.16;;;17.17;74.55
6020;BME280;3038;51.122;6.840;2023-10-08T07:23:40;102084.28;;;17.23;74.29
6020;BME280;3038;51.122;6.840;2023-10-08T07:26:28;102097.84;;;17.29;74.49
6020;BME280;3038;51.122;6.840;2023-10-08T07:29:05;102100.34;;;17.39;74.71
6020;BME280;3038;51.122;6.840;2023-10-08T07:31:33;102095.97;;;17.46;74.59
6020;BME280;3038;51.122;6.840;2023-10-08T07:34:02;102082.31;;;17.64;73.95
6020;BME280;3038;51.122;6.840;2023-10-08T07:36:48;102104.81;;;17.71;74.63
6020;BME280;3038;51.122;6.840;2023-10-08T07:39:15;102101.94;;;17.64;74.43
6020;BME280;3038;51.122;6.840;2023-10-08T07:42:00;102113.19;;;17.68;74.10
6020;BME280;3038;51.122;6.840;2023-10-08T07:44:27;102129.00;;;17.63;74.26
6020;BME280;3038;51.122;6.840;2023-10-08T07:47:01;102123.31;;;17.58;74.71
6020;BME280;3038;51.122;6.840;2023-10-08T07:49:31;102122.59;;;17.72;73.96
6020;BME280;3038;51.122;6.840;2023-10-08T07:51:57;102122.09;;;17.85;74.28
6020;BME280;3038;51.122;6.840;2023-10-08T07:54:24;102122.72;;;17.95;73.76
6020;BME280;3038;51.122;6.840;2023-10-08T07:56:53;102131.97;;;17.92;73.42
6020;BME280;3038;51.122;6.840;2023-10-08T07:59:25;102135.31;;;17.94;73.61
6020;BME280;3038;51.122;6.840;2023-10-08T08:01:50;102140.69;;;17.94;73.78
6020;BME280;3038;51.122;6.840;2023-10-08T08:04:19;102128.63;;;17.90;73.33
6020;BME280;3038;51.122;6.840;2023-10-08T08:06:50;102130.91;;;18.02;75.68
6020;BME280;3038;51.122;6.840;2023-10-08T08:09:17;102131.91;;;18.09;73.62
6020;BME280;3038;51.122;6.840;2023-10-08T08:11:46;102135.63;;;18.00;73.51
6020;BME280;3038;51.122;6.840;2023-10-08T08:14:16;102137.97;;;18.03;73.33
6020;BME280;3038;51.122;6.840;2023-10-08T08:16:50;102135.75;;;18.14;72.81
6020;BME280;3038;51.122;6.840;2023-10-08T08:19:16;102134.47;;;18.33;72.22
6020;BME280;3038;51.122;6.840;2023-10-08T08:21:45;102131.06;;;18.39;71.39
6020;BME280;3038;51.122;6.840;2023-10-08T08:24:12;102135.75;;;18.45;72.20
6020;BME280;3038;51.122;6.840;2023-10-08T08:26:41;102140.59;;;18.50;70.23
6020;BME280;3038;51.122;6.840;2023-10-08T08:29:26;102139.97;;;18.71;71.15
6020;BME280;3038;51.122;6.840;2023-10-08T08:31:57;102142.63;;;18.79;69.82
6020;BME280;3038;51.122;6.840;2023-10-08T08:34:23;102149.13;;;18.85;70.38
6020;BME280;3038;51.122;6.840;2023-10-08T08:36:51;102157.63;;;18.96;70.20
6020;BME280;3038;51.122;6.840;2023-10-08T08:39:16;102150.59;;;18.95;69.50
6020;BME280;3038;51.122;6.840;2023-10-08T08:41:58;102152.25;;;18.96;69.30
6020;BME280;3038;51.122;6.840;2023-10-08T08:44:27;102155.28;;;18.93;69.56
6020;BME280;3038;51.122;6.840;2023-10-08T08:46:56;102158.94;;;19.00;69.31
6020;BME280;3038;51.122;6.840;2023-10-08T08:49:23;102159.41;;;19.04;69.52
6020;BME280;3038;51.122;6.840;2023-10-08T08:51:50;102157.28;;;19.37;69.05
6020;BME280;3038;51.122;6.840;2023-10-08T08:54:19;102149.88;;;19.54;68.98
6020;BME280;3038;51.122;6.840;2023-10-08T08:56:48;102156.47;;;19.51;67.32
6020;BME280;3038;51.122;6.840;2023-10-08T08:59:14;102155.09;;;19.56;67.46
6020;BME280;3038;51.122;6.840;2023-10-08T09:01:42;102147.25;;;19.69;67.57
6020;BME280;3038;51.122;6.840;2023-10-08T09:04:08;102139.03;;;19.62;67.57
6020;BME280;3038;51.122;6.840;2023-10-08T09:06:41;102145.56;;;19.68;68.07
6020;BME280;3038;51.122;6.840;2023-10-08T09:09:07;102137.94;;;19.86;67.96
6020;BME280;3038;51.122;6.840;2023-10-08T09:11:52;102153.25;;;19.86;67.07
6020;BME280;3038;51.122;6.840;2023-10-08T09:14:24;102158.47;;;19.72;67.36
6020;BME280;3038;51.122;6.840;2023-10-08T09:16:57;102159.69;;;19.70;67.22
6020;BME280;3038;51.122;6.840;2023-10-08T09:19:23;102156.72;;;19.80;67.35
6020;BME280;3038;51.122;6.840;2023-10-08T09:22:00;102162.75;;;19.82;66.81
6020;BME280;3038;51.122;6.840;2023-10-08T09:29:35;102184.03;;;19.91;67.31
6020;BME280;3038;51.122;6.840;2023-10-08T09:32:30;102189.63;;;20.05;66.53
6020;BME280;3038;51.122;6.840;2023-10-08T09:34:56;102186.84;;;20.13;66.08
6020;BME280;3038;51.122;6.840;2023-10-08T09:37:24;102183.28;;;20.27;66.28
6020;BME280;3038;51.122;6.840;2023-10-08T09:39:54;102187.34;;;20.52;66.06
6020;BME280;3038;51.122;6.840;2023-10-08T09:42:21;102187.41;;;20.59;65.19
6020;BME280;3038;51.122;6.840;2023-10-08T09:44:49;102199.44;;;20.57;66.04
6020;BME280;3038;51.122;6.840;2023-10-08T09:47:20;102202.00;;;20.79;64.70
6020;BME280;3038;51.122;6.840;2023-10-08T09:49:57;102202.03;;;20.65;64.77
6020;BME280;3038;51.122;6.840;2023-10-08T09:52:34;102200.34;;;20.64;65.38
6020;BME280;3038;51.122;6.840;2023-10-08T09:55:10;102207.09;;;20.89;64.50
6020;BME280;3038;51.122;6.840;2023-10-08T09:57:44;102200.00;;;21.10;63.61
6020;BME280;3038;51.122;6.840;2023-10-08T10:00:14;102198.91;;;21.25;62.74
6020;BME280;3038;51.122;6.840;2023-10-08T10:02:46;102200.72;;;21.18;63.52
6020;BME280;3038;51.122;6.840;2023-10-08T10:05:21;102206.34;;;21.66;62.16
6020;BME280;3038;51.122;6.840;2023-10-08T10:07:55;102203.22;;;22.04;61.27
6020;BME280;3038;51.122;6.840;2023-10-08T10:10:28;102207.47;;;21.85;61.04
6020;BME280;3038;51.122;6.840;2023-10-08T10:13:10;102202.59;;;21.67;61.39
6020;BME280;3038;51.122;6.840;2023-10-08T10:15:36;102193.94;;;21.50;61.67
6020;BME280;3038;51.122;6.840;2023-10-08T10:18:45;102194.19;;;21.55;61.17
6020;BME280;3038;51.122;6.840;2023-10-08T10:23:43;102191.19;;;22.06;61.13
6020;BME280;3038;51.122;6.840;2023-10-08T10:26:32;102194.47;;;22.30;60.91
6020;BME280;3038;51.122;6.840;2023-10-08T10:29:23;102198.06;;;22.44;60.52
6020;BME280;3038;51.122;6.840;2023-10-08T10:31:54;102199.53;;;22.53;60.76
6020;BME280;3038;51.122;6.840;2023-10-08T10:34:56;102198.06;;;22.50;59.70
6020;BME280;3038;51.122;6.840;2023-10-08T10:37:25;102203.31;;;22.58;60.04
6020;BME280;3038;51.122;6.840;2023-10-08T10:39:57;102188.84;;;23.59;56.13
6020;BME280;3038;51.122;6.840;2023-10-08T10:42:29;102198.31;;;24.28;54.57
6020;BME280;3038;51.122;6.840;2023-10-08T10:44:55;102192.50;;;25.32;52.34
6020;BME280;3038;51.122;6.840;2023-10-08T10:47:25;102182.88;;;26.17;49.96
6020;BME280;3038;51.122;6.840;2023-10-08T10:49:54;102196.06;;;25.58;50.89
6020;BME280;3038;51.122;6.840;2023-10-08T10:52:56;102187.13;;;23.98;53.88
6020;BME280;3038;51.122;6.840;2023-10-08T10:55:43;102185.91;;;23.87;54.86
6020;BME280;3038;51.122;6.840;2023-10-08T10:58:30;102187.84;;;23.27;56.07
6020;BME280;3038;51.122;6.840;2023-10-08T11:01:28;102174.22;;;22.80;57.12
6020;BME280;3038;51.122;6.840;2023-10-08T11:04:10;102185.47;;;22.84;57.59
6020;BME280;3038;51.122;6.840;2023-10-08T11:06:45;102188.56;;;22.81;57.72
6020;BME280;3038;51.122;6.840;2023-10-08T11:09:42;102188.25;;;23.57;56.64
6020;BME280;3038;51.122;6.840;2023-10-08T11:12:30;102190.94;;;25.43;52.22
6020;BME280;3038;51.122;6.840;2023-10-08T11:15:13;102185.75;;;26.22;48.92
6020;BME280;3038;51.122;6.840;2023-10-08T11:17:41;102200.34;;;25.91;50.20
6020;BME280;3038;51.122;6.840;2023-10-08T11:20:28;102198.69;;;25.64;49.77
6020;BME280;3038;51.122;6.840;2023-10-08T11:23:03;102190.91;;;25.25;52.10
6020;BME280;3038;51.122;6.840;2023-10-08T11:26:09;102194.78;;;25.10;51.79
6020;BME280;3038;51.122;6.840;2023-10-08T11:28:37;102179.84;;;24.88;53.01
6020;BME280;3038;51.122;6.840;2023-10-08T11:31:17;102173.53;;;24.94;54.24
6020;BME280;3038;51.122;6.840;2023-10-08T11:34:10;102167.72;;;24.91;53.92
6020;BME280;3038;51.122;6.840;2023-10-08T11:36:41;102176.44;;;24.68;54.78
6020;BME280;3038;51.122;6.840;2023-10-08T11:39:18;102172.41;;;24.77;53.67
6020;BME280;3038;51.122;6.840;2023-10-08T11:42:06;102172.84;;;25.55;52.95
6020;BME280;3038;51.122;6.840;2023-10-08T11:44:49;102173.69;;;26.78;49.61
6020;BME280;3038;51.122;6.840;2023-10-08T11:47:37;102172.03;;;27.65;47.08
6020;BME280;3038;51.122;6.840;2023-10-08T11:53:53;102162.88;;;25.93;51.85
6020;BME280;3038;51.122;6.840;2023-10-08T11:57:00;102163.88;;;24.98;53.17
6020;BME280;3038;51.122;6.840;2023-10-08T11:59:31;102167.59;;;24.34;55.28
6020;BME280;3038;51.122;6.840;2023-10-08T12:01:57;102167.94;;;23.99;55.49
6020;BME280;3038;51.122;6.840;2023-10-08T12:04:23;102155.50;;;23.72;55.93
6020;BME280;3038;51.122;6.840;2023-10-08T12:06:48;102160.72;;;23.40;57.02
6020;BME280;3038;51.122;6.840;2023-10-08T12:09:17;102176.94;;;22.87;58.15
6020;BME280;3038;51.122;6.840;2023-10-08T12:11:56;102156.44;;;22.51;59.51
6020;BME280;3038;51.122;6.840;2023-10-08T12:14:25;102151.84;;;22.45;59.66
6020;BME280;3038;51.122;6.840;2023-10-08T12:16:58;102157.13;;;22.19;60.05
6020;BME280;3038;51.122;6.840;2023-10-08T12:19:25;102152.88;;;21.96;61.14
6020;BME280;3038;51.122;6.840;2023-10-08T12:21:51;102150.34;;;21.95;61.58
6020;BME280;3038;51.122;6.840;2023-10-08T12:24:18;102150.75;;;21.92;61.46
6020;BME280;3038;51.122;6.840;2023-10-08T12:26:45;102159.47;;;21.87;61.88
6020;BME280;3038;51.122;6.840;2023-10-08T12:29:16;102154.34;;;21.71;62.84
6020;BME280;3038;51.122;6.840;2023-10-08T12:31:42;102150.09;;;21.55;62.96
6020;BME280;3038;51.122;6.840;2023-10-08T12:34:17;102147.72;;;21.67;62.95
6020;BME280;3038;51.122;6.840;2023-10-08T12:36:46;102132.66;;;21.58;63.00
6020;BME280;3038;51.122;6.840;2023-10-08T12:39:16;102146.69;;;21.74;63.05
6020;BME280;3038;51.122;6.840;2023-10-08T12:41:55;102143.16;;;21.74;63.07
6020;BME280;3038;51.122;6.840;2023-10-08T12:44:30;102125.16;;;21.53;63.17
6020;BME280;3038;51.122;6.840;2023-10-08T12:46:55;102137.88;;;21.31;64.08
6020;BME280;3038;51.122;6.840;2023-10-08T12:49:27;102105.00;;;21.27;64.62
6020;BME280;3038;51.122;6.840;2023-10-08T12:52:01;102092.44;;;21.13;65.17
6020;BME280;3038;51.122;6.840;2023-10-08T12:54:27;102123.31;;;21.04;65.45
6020;BME280;3038;51.122;6.840;2023-10-08T12:56:58;102123.22;;;21.19;65.33
6020;BME280;3038;51.122;6.840;2023-10-08T12:59:27;102103.28;;;21.20;65.02
6020;BME280;3038;51.122;6.840;2023-10-08T13:01:55;102103.16;;;21.07;65.54
6020;BME280;3038;51.122;6.840;2023-10-08T13:04:20;102114.41;;;21.10;65.44
6020;BME280;3038;51.122;6.840;2023-10-08T13:07:01;102101.72;;;21.32;65.42
6020;BME280;3038;51.122;6.840;2023-10-08T13:09:28;102087.56;;;21.30;64.87
6020;BME280;3038;51.122;6.840;2023-10-08T13:11:56;102094.66;;;21.31;64.99
6020;BME280;3038;51.122;6.840;2023-10-08T13:14:25;102087.31;;;21.53;65.04
6020;BME280;3038;51.122;6.840;2023-10-08T13:16:54;102094.25;;;21.69;64.49
6020;BME280;3038;51.122;6.840;2023-10-08T13:19:20;102097.03;;;21.82;63.65
6020;BME280;3038;51.122;6.840;2023-10-08T13:21:45;102092.25;;;22.32;63.08
6020;BME280;3038;51.122;6.840;2023-10-08T13:24:13;102098.16;;;22.75;61.47
6020;BME280;3038;51.122;6.840;2023-10-08T13:26:41;102098.59;;;23.45;60.67
6020;BME280;3038;51.122;6.840;2023-10-08T13:29:09;102095.22;;;23.56;59.37
6020;BME280;3038;51.122;6.840;2023-10-08T13:31:39;102083.59;;;23.36;60.25
6020;BME280;3038;51.122;6.840;2023-10-08T13:34:05;102085.06;;;23.05;60.49
6020;BME280;3038;51.122;6.840;2023-10-08T13:36:35;102082.75;;;23.29;60.39
6020;BME280;3038;51.122;6.840;2023-10-08T13:39:16;102096.91;;;24.16;57.50
6020;BME280;3038;51.122;6.840;2023-10-08T13:41:59;102080.75;;;23.82;58.93
6020;BME280;3038;51.122;6.840;2023-10-08T13:44:29;102080.63;;;23.44;59.24
6020;BME280;3038;51.122;6.840;2023-10-08T13:46:55;102076.19;;;24.21;57.87
6020;BME280;3038;51.122;6.840;2023-10-08T13:49:23;102072.31;;;24.99;56.11
6020;BME280;3038;51.122;6.840;2023-10-08T13:51:52;102059.06;;;25.34;54.55
6020;BME280;3038;51.122;6.840;2023-10-08T13:54:22;102053.63;;;25.34;53.80
6020;BME280;3038;51.122;6.840;2023-10-08T13:56:53;102043.19;;;25.68;54.09